sensor_id;sensor_type;location;lat;lon;timestamp;P1;durP1;ratioP1;P2;durP2;ratioP2
59512;SDS011;45330;51.634;5.562;2024-03-23T00:55:41;17.48;;;4.85;;
59512;SDS011;45330;51.634;5.562;2024-03-23T00:58:07;19.25;;;4.97;;
59512;SDS011;45330;51.634;5.562;2024-03-23T01:00:33;16.92;;;4.90;;
59512;SDS011;45330;51.634;5.562;2024-03-23T01:02:58;22.05;;;4.43;;
59512;SDS011;45330;51.634;5.562;2024-03-23T01:05:24;20.05;;;5.10;;
59512;SDS011;45330;51.634;5.562;2024-03-23T01:07:49;23.08;;;5.65;;
59512;SDS011;45330;51.634;5.562;2024-03-23T01:10:15;18.05;;;4.63;;
59512;SDS011;45330;51.634;5.562;2024-03-23T01:12:40;18.92;;;4.80;;
59512;SDS011;45330;51.634;5.562;2024-03-23T01:15:06;21.48;;;5.25;;
59512;SDS011;45330;51.634;5.562;2024-03-23T01:17:31;22.00;;;5.50;;
59512;SDS011;45330;51.634;5.562;2024-03-23T01:19:57;21.02;;;5.25;;
59512;SDS011;45330;51.634;5.562;2024-03-23T01:22:22;20.98;;;5.20;;
59512;SDS011;45330;51.634;5.562;2024-03-23T01:24:47;19.83;;;5.03;;
59512;SDS011;45330;51.634;5.562;2024-03-23T01:27:13;16.88;;;4.65;;
59512;SDS011;45330;51.634;5.562;2024-03-23T01:29:38;20.88;;;5.57;;
59512;SDS011;45330;51.634;5.562;2024-03-23T01:32:04;19.95;;;5.00;;
59512;SDS011;45330;51.634;5.562;2024-03-23T01:34:30;19.33;;;4.68;;
59512;SDS011;45330;51.634;5.562;2024-03-23T01:36:55;19.85;;;5.57;;
59512;SDS011;45330;51.634;5.562;2024-03-23T01:39:20;18.92;;;5.05;;
59512;SDS011;45330;51.634;5.562;2024-03-23T01:41:46;21.13;;;4.97;;
59512;SDS011;45330;51.634;5.562;2024-03-23T01:44:11;18.17;;;5.43;;
59512;SDS011;45330;51.634;5.562;2024-03-23T01:46:37;20.88;;;5.22;;
59512;SDS011;45330;51.634;5.562;2024-03-23T01:49:03;20.30;;;5.75;;
59512;SDS011;45330;51.634;5.562;2024-03-23T01:51:30;20.00;;;5.28;;
59512;SDS011;45330;51.634;5.562;2024-03-23T01:53:57;21.52;;;6.05;;
59512;SDS011;45330;51.634;5.562;2024-03-23T01:56:25;20.77;;;5.63;;
59512;SDS011;45330;51.634;5.562;2024-03-23T01:58:51;23.25;;;6.25;;
59512;SDS011;45330;51.634;5.562;2024-03-23T02:01:16;21.73;;;5.45;;
59512;SDS011;45330;51.634;5.562;2024-03-23T02:03:41;20.98;;;5.68;;
59512;SDS011;45330;51.634;5.562;2024-03-23T02:06:07;24.35;;;6.25;;
59512;SDS011;45330;51.634;5.562;2024-03-23T02:08:33;20.17;;;6.57;;
59512;SDS011;45330;51.634;5.562;2024-03-23T02:10:59;21.65;;;6.38;;
59512;SDS011;45330;51.634;5.562;2024-03-23T02:13:25;19.10;;;5.85;;
59512;SDS011;45330;51.634;5.562;2024-03-23T02:15:50;25.23;;;6.50;;
59512;SDS011;45330;51.634;5.562;2024-03-23T02:18:15;23.90;;;7.78;;
59512;SDS011;45330;51.634;5.562;2024-03-23T02:20:41;21.38;;;6.18;;
59512;SDS011;45330;51.634;5.562;2024-03-23T02:23:12;23.70;;;6.60;;
59512;SDS011;45330;51.634;5.562;2024-03-23T02:25:38;24.33;;;7.88;;
59512;SDS011;45330;51.634;5.562;2024-03-23T02:28:04;23.58;;;7.10;;
59512;SDS011;45330;51.634;5.562;2024-03-23T02:30:29;22.95;;;6.45;;
59512;SDS011;45330;51.634;5.562;2024-03-23T02:32:55;22.98;;;6.57;;
59512;SDS011;45330;51.634;5.562;2024-03-23T02:35:21;23.98;;;6.80;;
59512;SDS011;45330;51.634;5.562;2024-03-23T02:37:46;24.33;;;7.07;;
59512;SDS011;45330;51.634;5.562;2024-03-23T02:40:13;21.50;;;6.47;;
59512;SDS011;45330;51.634;5.562;2024-03-23T02:42:39;23.70;;;6.68;;
59512;SDS011;45330;51.634;5.562;2024-03-23T02:45:04;23.15;;;7.13;;
59512;SDS011;45330;51.634;5.562;2024-03-23T02:47:30;24.50;;;7.97;;
59512;SDS011;45330;51.634;5.562;2024-03-23T02:49:56;23.52;;;7.18;;
59512;SDS011;45330;51.634;5.562;2024-03-23T02:52:21;23.92;;;7.10;;
59512;SDS011;45330;51.634;5.562;2024-03-23T02:54:46;24.98;;;6.95;;
59512;SDS011;45330;51.634;5.562;2024-03-23T02:57:12;20.55;;;6.38;;
59512;SDS011;45330;51.634;5.562;2024-03-23T02:59:37;26.13;;;7.72;;
59512;SDS011;45330;51.634;5.562;2024-03-23T03:02:02;24.50;;;6.57;;
59512;SDS011;45330;51.634;5.562;2024-03-23T03:04:31;21.88;;;6.43;;
59512;SDS011;45330;51.634;5.562;2024-03-23T03:06:57;24.38;;;6.78;;
59512;SDS011;45330;51.634;5.562;2024-03-23T03:09:22;23.77;;;6.88;;
59512;SDS011;45330;51.634;5.562;2024-03-23T03:11:48;24.77;;;6.97;;
59512;SDS011;45330;51.634;5.562;2024-03-23T03:14:13;21.05;;;6.20;;
59512;SDS011;45330;51.634;5.562;2024-03-23T03:16:39;25.77;;;6.47;;
59512;SDS011;45330;51.634;5.562;2024-03-23T03:19:04;23.70;;;6.60;;
59512;SDS011;45330;51.634;5.562;2024-03-23T03:21:29;22.30;;;5.85;;
59512;SDS011;45330;51.634;5.562;2024-03-23T03:23:55;21.25;;;5.88;;
59512;SDS011;45330;51.634;5.562;2024-03-23T03:26:21;21.83;;;6.47;;
59512;SDS011;45330;51.634;5.562;2024-03-23T03:28:47;24.05;;;6.35;;
59512;SDS011;45330;51.634;5.562;2024-03-23T03:31:17;22.42;;;6.70;;
59512;SDS011;45330;51.634;5.562;2024-03-23T03:33:43;24.23;;;6.88;;
59512;SDS011;45330;51.634;5.562;2024-03-23T03:36:09;24.63;;;7.07;;
59512;SDS011;45330;51.634;5.562;2024-03-23T03:38:34;23.98;;;6.00;;
59512;SDS011;45330;51.634;5.562;2024-03-23T03:41:03;21.83;;;5.30;;
59512;SDS011;45330;51.634;5.562;2024-03-23T03:43:29;23.13;;;6.47;;
59512;SDS011;45330;51.634;5.562;2024-03-23T03:45:55;22.23;;;5.25;;
59512;SDS011;45330;51.634;5.562;2024-03-23T03:48:21;24.50;;;5.97;;
59512;SDS011;45330;51.634;5.562;2024-03-23T03:50:47;22.52;;;6.18;;
59512;SDS011;45330;51.634;5.562;2024-03-23T03:53:13;25.63;;;5.70;;
59512;SDS011;45330;51.634;5.562;2024-03-23T03:55:38;26.95;;;5.93;;
59512;SDS011;45330;51.634;5.562;2024-03-23T03:58:04;23.15;;;5.45;;
59512;SDS011;45330;51.634;5.562;2024-03-23T04:00:32;20.40;;;5.03;;
59512;SDS011;45330;51.634;5.562;2024-03-23T04:02:57;20.20;;;5.63;;
59512;SDS011;45330;51.634;5.562;2024-03-23T04:05:23;24.65;;;5.88;;
59512;SDS011;45330;51.634;5.562;2024-03-23T04:07:48;20.17;;;5.50;;
59512;SDS011;45330;51.634;5.562;2024-03-23T04:10:14;18.15;;;4.78;;
59512;SDS011;45330;51.634;5.562;2024-03-23T04:12:41;24.77;;;5.30;;
59512;SDS011;45330;51.634;5.562;2024-03-23T04:15:08;21.77;;;5.32;;
59512;SDS011;45330;51.634;5.562;2024-03-23T04:17:33;19.48;;;5.07;;
59512;SDS011;45330;51.634;5.562;2024-03-23T04:19:59;23.40;;;5.50;;
59512;SDS011;45330;51.634;5.562;2024-03-23T04:22:26;20.85;;;5.15;;
59512;SDS011;45330;51.634;5.562;2024-03-23T04:24:55;21.63;;;5.28;;
59512;SDS011;45330;51.634;5.562;2024-03-23T04:27:21;21.80;;;5.25;;
59512;SDS011;45330;51.634;5.562;2024-03-23T04:29:50;20.13;;;4.80;;
59512;SDS011;45330;51.634;5.562;2024-03-23T04:32:16;18.77;;;4.88;;
59512;SDS011;45330;51.634;5.562;2024-03-23T04:34:43;21.35;;;5.55;;
59512;SDS011;45330;51.634;5.562;2024-03-23T04:37:09;26.67;;;6.45;;
59512;SDS011;45330;51.634;5.562;2024-03-23T04:39:38;24.08;;;5.40;;
59512;SDS011;45330;51.634;5.562;2024-03-23T04:42:03;21.77;;;5.32;;
59512;SDS011;45330;51.634;5.562;2024-03-23T04:44:29;22.55;;;5.63;;
59512;SDS011;45330;51.634;5.562;2024-03-23T04:46:56;21.75;;;5.53;;
59512;SDS011;45330;51.634;5.562;2024-03-23T04:49:21;21.95;;;5.47;;
59512;SDS011;45330;51.634;5.562;2024-03-23T04:51:47;23.75;;;5.38;;
59512;SDS011;45330;51.634;5.562;2024-03-23T04:54:12;27.10;;;6.15;;
59512;SDS011;45330;51.634;5.562;2024-03-23T04:56:38;20.42;;;5.70;;
59512;SDS011;45330;51.634;5.562;2024-03-23T04:59:03;24.15;;;6.22;;
59512;SDS011;45330;51.634;5.562;2024-03-23T05:01:30;21.10;;;5.93;;
59512;SDS011;45330;51.634;5.562;2024-03-23T05:03:56;20.05;;;5.22;;
59512;SDS011;45330;51.634;5.562;2024-03-23T05:06:22;23.00;;;5.55;;
59512;SDS011;45330;51.634;5.562;2024-03-23T05:08:48;23.13;;;5.72;;
59512;SDS011;45330;51.634;5.562;2024-03-23T05:11:14;27.13;;;5.95;;
59512;SDS011;45330;51.634;5.562;2024-03-23T05:13:40;22.48;;;5.57;;
59512;SDS011;45330;51.634;5.562;2024-03-23T05:16:06;25.90;;;6.15;;
59512;SDS011;45330;51.634;5.562;2024-03-23T05:18:32;23.90;;;6.70;;
59512;SDS011;45330;51.634;5.562;2024-03-23T05:20:57;22.05;;;6.20;;
59512;SDS011;45330;51.634;5.562;2024-03-23T05:23:24;24.23;;;5.88;;
59512;SDS011;45330;51.634;5.562;2024-03-23T05:25:50;25.08;;;6.43;;
59512;SDS011;45330;51.634;5.562;2024-03-23T05:28:16;25.90;;;6.45;;
59512;SDS011;45330;51.634;5.562;2024-03-23T05:30:42;25.52;;;6.32;;
59512;SDS011;45330;51.634;5.562;2024-03-23T05:33:08;25.70;;;6.47;;
59512;SDS011;45330;51.634;5.562;2024-03-23T05:35:33;24.40;;;7.05;;
59512;SDS011;45330;51.634;5.562;2024-03-23T05:37:59;23.90;;;6.82;;
59512;SDS011;45330;51.634;5.562;2024-03-23T05:40:25;20.05;;;6.10;;
59512;SDS011;45330;51.634;5.562;2024-03-23T05:42:51;23.98;;;7.53;;
59512;SDS011;45330;51.634;5.562;2024-03-23T05:45:21;24.92;;;7.22;;
59512;SDS011;45330;51.634;5.562;2024-03-23T05:47:47;21.55;;;6.75;;
59512;SDS011;45330;51.634;5.562;2024-03-23T05:50:13;24.00;;;6.95;;
59512;SDS011;45330;51.634;5.562;2024-03-23T05:52:39;25.52;;;7.30;;
59512;SDS011;45330;51.634;5.562;2024-03-23T05:55:04;25.80;;;7.65;;
59512;SDS011;45330;51.634;5.562;2024-03-23T05:57:30;26.30;;;8.15;;
59512;SDS011;45330;51.634;5.562;2024-03-23T05:59:56;27.58;;;8.52;;
59512;SDS011;45330;51.634;5.562;2024-03-23T06:02:22;30.08;;;9.60;;
59512;SDS011;45330;51.634;5.562;2024-03-23T06:04:47;26.77;;;8.35;;
59512;SDS011;45330;51.634;5.562;2024-03-23T06:07:12;26.60;;;8.57;;
59512;SDS011;45330;51.634;5.562;2024-03-23T06:09:38;27.30;;;8.85;;
59512;SDS011;45330;51.634;5.562;2024-03-23T06:12:07;27.55;;;8.80;;
59512;SDS011;45330;51.634;5.562;2024-03-23T06:14:32;28.05;;;8.52;;
59512;SDS011;45330;51.634;5.562;2024-03-23T06:16:58;26.73;;;9.35;;
59512;SDS011;45330;51.634;5.562;2024-03-23T06:19:24;27.60;;;8.90;;
59512;SDS011;45330;51.634;5.562;2024-03-23T06:21:52;24.98;;;8.48;;
59512;SDS011;45330;51.634;5.562;2024-03-23T06:24:17;24.55;;;8.80;;
59512;SDS011;45330;51.634;5.562;2024-03-23T06:26:42;27.25;;;8.65;;
59512;SDS011;45330;51.634;5.562;2024-03-23T06:29:08;24.73;;;8.43;;
59512;SDS011;45330;51.634;5.562;2024-03-23T06:31:34;25.77;;;7.63;;
59512;SDS011;45330;51.634;5.562;2024-03-23T06:33:59;26.33;;;8.63;;
59512;SDS011;45330;51.634;5.562;2024-03-23T06:36:26;24.75;;;8.77;;
59512;SDS011;45330;51.634;5.562;2024-03-23T06:38:52;30.23;;;8.30;;
59512;SDS011;45330;51.634;5.562;2024-03-23T06:41:19;27.35;;;9.20;;
59512;SDS011;45330;51.634;5.562;2024-03-23T06:43:44;26.00;;;7.50;;
59512;SDS011;45330;51.634;5.562;2024-03-23T06:46:10;23.95;;;6.82;;
59512;SDS011;45330;51.634;5.562;2024-03-23T06:48:35;25.13;;;7.32;;
59512;SDS011;45330;51.634;5.562;2024-03-23T06:51:00;21.92;;;6.80;;
59512;SDS011;45330;51.634;5.562;2024-03-23T06:53:26;24.05;;;6.65;;
59512;SDS011;45330;51.634;5.562;2024-03-23T06:55:52;25.27;;;6.10;;
59512;SDS011;45330;51.634;5.562;2024-03-23T06:58:21;20.13;;;5.82;;
59512;SDS011;45330;51.634;5.562;2024-03-23T07:00:48;19.05;;;5.47;;
59512;SDS011;45330;51.634;5.562;2024-03-23T07:03:14;19.55;;;5.22;;
59512;SDS011;45330;51.634;5.562;2024-03-23T07:05:39;23.70;;;5.97;;
59512;SDS011;45330;51.634;5.562;2024-03-23T07:08:05;21.80;;;5.57;;
59512;SDS011;45330;51.634;5.562;2024-03-23T07:10:30;21.27;;;5.55;;
59512;SDS011;45330;51.634;5.562;2024-03-23T07:12:56;18.45;;;4.60;;
59512;SDS011;45330;51.634;5.562;2024-03-23T07:15:21;21.02;;;5.30;;
59512;SDS011;45330;51.634;5.562;2024-03-23T07:17:47;22.63;;;4.53;;
59512;SDS011;45330;51.634;5.562;2024-03-23T07:20:12;16.70;;;3.97;;
59512;SDS011;45330;51.634;5.562;2024-03-23T07:22:38;17.83;;;4.30;;
59512;SDS011;45330;51.634;5.562;2024-03-23T07:25:04;14.25;;;3.70;;
59512;SDS011;45330;51.634;5.562;2024-03-23T07:27:31;16.95;;;4.22;;
59512;SDS011;45330;51.634;5.562;2024-03-23T07:29:57;15.75;;;3.75;;
59512;SDS011;45330;51.634;5.562;2024-03-23T07:32:22;17.33;;;4.07;;
59512;SDS011;45330;51.634;5.562;2024-03-23T07:34:48;15.60;;;4.65;;
59512;SDS011;45330;51.634;5.562;2024-03-23T07:37:13;16.98;;;3.38;;
59512;SDS011;45330;51.634;5.562;2024-03-23T07:39:42;16.10;;;3.80;;
59512;SDS011;45330;51.634;5.562;2024-03-23T07:42:07;18.05;;;4.40;;
59512;SDS011;45330;51.634;5.562;2024-03-23T07:44:32;18.50;;;3.65;;
59512;SDS011;45330;51.634;5.562;2024-03-23T07:47:00;17.20;;;3.83;;
59512;SDS011;45330;51.634;5.562;2024-03-23T07:49:26;15.82;;;3.85;;
59512;SDS011;45330;51.634;5.562;2024-03-23T07:51:52;14.98;;;3.65;;
59512;SDS011;45330;51.634;5.562;2024-03-23T07:54:17;20.17;;;4.15;;
59512;SDS011;45330;51.634;5.562;2024-03-23T07:56:42;17.85;;;3.55;;
59512;SDS011;45330;51.634;5.562;2024-03-23T07:59:08;20.17;;;4.22;;
59512;SDS011;45330;51.634;5.562;2024-03-23T08:01:33;18.10;;;4.38;;
59512;SDS011;45330;51.634;5.562;2024-03-23T08:03:59;14.85;;;3.80;;
59512;SDS011;45330;51.634;5.562;2024-03-23T08:06:24;17.30;;;4.15;;
59512;SDS011;45330;51.634;5.562;2024-03-23T08:08:59;21.02;;;4.88;;
59512;SDS011;45330;51.634;5.562;2024-03-23T08:11:25;19.00;;;4.53;;
59512;SDS011;45330;51.634;5.562;2024-03-23T08:13:51;17.10;;;3.75;;
59512;SDS011;45330;51.634;5.562;2024-03-23T08:16:16;15.50;;;3.58;;
59512;SDS011;45330;51.634;5.562;2024-03-23T08:18:42;15.63;;;4.00;;
59512;SDS011;45330;51.634;5.562;2024-03-23T08:21:07;18.92;;;3.50;;
59512;SDS011;45330;51.634;5.562;2024-03-23T08:23:33;18.63;;;3.83;;
59512;SDS011;45330;51.634;5.562;2024-03-23T08:26:03;22.30;;;4.32;;
59512;SDS011;45330;51.634;5.562;2024-03-23T08:28:30;12.10;;;2.97;;
59512;SDS011;45330;51.634;5.562;2024-03-23T08:30:55;17.08;;;3.85;;
59512;SDS011;45330;51.634;5.562;2024-03-23T08:33:21;19.25;;;3.60;;
59512;SDS011;45330;51.634;5.562;2024-03-23T08:35:56;20.48;;;3.55;;
59512;SDS011;45330;51.634;5.562;2024-03-23T08:38:23;13.05;;;3.67;;
59512;SDS011;45330;51.634;5.562;2024-03-23T08:43:28;8.60;;;2.35;;
59512;SDS011;45330;51.634;5.562;2024-03-23T08:46:02;10.45;;;2.17;;
59512;SDS011;45330;51.634;5.562;2024-03-23T08:48:35;9.77;;;2.00;;
59512;SDS011;45330;51.634;5.562;2024-03-23T08:53:30;11.85;;;2.30;;
59512;SDS011;45330;51.634;5.562;2024-03-23T08:55:56;13.70;;;2.58;;
59512;SDS011;45330;51.634;5.562;2024-03-23T08:58:23;13.40;;;2.58;;
59512;SDS011;45330;51.634;5.562;2024-03-23T09:00:50;13.40;;;2.58;;
59512;SDS011;45330;51.634;5.562;2024-03-23T09:03:16;16.27;;;2.78;;
59512;SDS011;45330;51.634;5.562;2024-03-23T09:05:41;13.30;;;2.92;;
59512;SDS011;45330;51.634;5.562;2024-03-23T09:08:07;13.82;;;3.03;;
59512;SDS011;45330;51.634;5.562;2024-03-23T09:10:38;13.30;;;2.90;;
59512;SDS011;45330;51.634;5.562;2024-03-23T09:15:29;15.45;;;3.00;;
59512;SDS011;45330;51.634;5.562;2024-03-23T09:17:56;13.38;;;2.80;;
59512;SDS011;45330;51.634;5.562;2024-03-23T09:20:21;18.63;;;2.85;;
59512;SDS011;45330;51.634;5.562;2024-03-23T09:22:47;16.98;;;3.50;;
59512;SDS011;45330;51.634;5.562;2024-03-23T09:25:13;19.17;;;3.25;;
59512;SDS011;45330;51.634;5.562;2024-03-23T09:27:39;12.73;;;3.53;;
59512;SDS011;45330;51.634;5.562;2024-03-23T09:30:04;15.63;;;2.72;;
59512;SDS011;45330;51.634;5.562;2024-03-23T09:32:30;9.68;;;2.83;;
59512;SDS011;45330;51.634;5.562;2024-03-23T09:34:55;17.27;;;3.50;;
59512;SDS011;45330;51.634;5.562;2024-03-23T09:37:21;14.10;;;2.78;;
59512;SDS011;45330;51.634;5.562;2024-03-23T09:39:46;15.13;;;2.70;;
59512;SDS011;45330;51.634;5.562;2024-03-23T09:42:11;17.15;;;2.70;;
59512;SDS011;45330;51.634;5.562;2024-03-23T09:44:37;14.50;;;3.33;;
59512;SDS011;45330;51.634;5.562;2024-03-23T09:47:02;14.23;;;2.97;;
59512;SDS011;45330;51.634;5.562;2024-03-23T09:49:28;12.00;;;2.80;;
59512;SDS011;45330;51.634;5.562;2024-03-23T09:51:54;15.95;;;3.00;;
59512;SDS011;45330;51.634;5.562;2024-03-23T09:54:21;14.07;;;3.45;;
59512;SDS011;45330;51.634;5.562;2024-03-23T09:56:46;17.73;;;3.05;;
59512;SDS011;45330;51.634;5.562;2024-03-23T09:59:12;12.80;;;2.80;;
59512;SDS011;45330;51.634;5.562;2024-03-23T10:01:37;15.27;;;2.97;;
59512;SDS011;45330;51.634;5.562;2024-03-23T10:04:03;12.40;;;2.60;;
59512;SDS011;45330;51.634;5.562;2024-03-23T10:06:28;14.38;;;2.80;;
59512;SDS011;45330;51.634;5.562;2024-03-23T10:08:54;11.73;;;2.40;;
59512;SDS011;45330;51.634;5.562;2024-03-23T10:11:20;10.10;;;2.17;;
59512;SDS011;45330;51.634;5.562;2024-03-23T10:13:46;14.57;;;2.80;;
59512;SDS011;45330;51.634;5.562;2024-03-23T10:16:12;16.15;;;3.50;;
59512;SDS011;45330;51.634;5.562;2024-03-23T10:18:46;9.90;;;2.22;;
59512;SDS011;45330;51.634;5.562;2024-03-23T10:21:13;10.77;;;2.45;;
59512;SDS011;45330;51.634;5.562;2024-03-23T10:23:40;12.20;;;2.13;;
59512;SDS011;45330;51.634;5.562;2024-03-23T10:26:17;10.85;;;2.20;;
59512;SDS011;45330;51.634;5.562;2024-03-23T10:29:02;9.93;;;2.05;;
59512;SDS011;45330;51.634;5.562;2024-03-23T10:31:33;12.48;;;2.47;;
59512;SDS011;45330;51.634;5.562;2024-03-23T10:34:02;10.82;;;2.40;;
59512;SDS011;45330;51.634;5.562;2024-03-23T10:36:28;12.10;;;2.45;;
59512;SDS011;45330;51.634;5.562;2024-03-23T10:38:55;10.13;;;2.25;;
59512;SDS011;45330;51.634;5.562;2024-03-23T10:41:21;9.82;;;2.35;;
59512;SDS011;45330;51.634;5.562;2024-03-23T10:43:46;10.20;;;2.10;;
59512;SDS011;45330;51.634;5.562;2024-03-23T10:46:12;11.02;;;2.40;;
59512;SDS011;45330;51.634;5.562;2024-03-23T10:48:38;12.77;;;2.65;;
59512;SDS011;45330;51.634;5.562;2024-03-23T10:51:04;9.88;;;2.30;;
59512;SDS011;45330;51.634;5.562;2024-03-23T10:53:32;14.23;;;2.20;;
59512;SDS011;45330;51.634;5.562;2024-03-23T10:55:59;12.15;;;2.20;;
59512;SDS011;45330;51.634;5.562;2024-03-23T10:58:26;13.93;;;2.40;;
59512;SDS011;45330;51.634;5.562;2024-03-23T11:00:53;10.48;;;2.65;;
59512;SDS011;45330;51.634;5.562;2024-03-23T11:03:32;11.35;;;2.10;;
59512;SDS011;45330;51.634;5.562;2024-03-23T11:05:59;8.65;;;1.90;;
59512;SDS011;45330;51.634;5.562;2024-03-23T11:08:32;16.50;;;2.58;;
59512;SDS011;45330;51.634;5.562;2024-03-23T11:11:17;8.85;;;1.80;;
59512;SDS011;45330;51.634;5.562;2024-03-23T11:13:50;13.45;;;2.30;;
59512;SDS011;45330;51.634;5.562;2024-03-23T11:16:17;14.30;;;2.65;;
59512;SDS011;45330;51.634;5.562;2024-03-23T11:18:48;10.68;;;2.53;;
59512;SDS011;45330;51.634;5.562;2024-03-23T11:24:17;9.95;;;2.03;;
59512;SDS011;45330;51.634;5.562;2024-03-23T11:26:44;9.73;;;2.28;;
59512;SDS011;45330;51.634;5.562;2024-03-23T11:29:09;7.80;;;1.70;;
59512;SDS011;45330;51.634;5.562;2024-03-23T11:31:36;7.18;;;1.65;;
59512;SDS011;45330;51.634;5.562;2024-03-23T11:34:03;5.28;;;1.50;;
59512;SDS011;45330;51.634;5.562;2024-03-23T11:36:30;5.40;;;1.60;;
59512;SDS011;45330;51.634;5.562;2024-03-23T11:38:55;6.15;;;1.60;;
59512;SDS011;45330;51.634;5.562;2024-03-23T11:41:21;7.97;;;1.88;;
59512;SDS011;45330;51.634;5.562;2024-03-23T11:43:46;6.50;;;1.73;;
59512;SDS011;45330;51.634;5.562;2024-03-23T11:46:12;11.52;;;2.10;;
59512;SDS011;45330;51.634;5.562;2024-03-23T11:48:50;13.63;;;2.05;;
59512;SDS011;45330;51.634;5.562;2024-03-23T11:51:19;11.30;;;2.47;;
59512;SDS011;45330;51.634;5.562;2024-03-23T11:53:45;15.82;;;2.42;;
59512;SDS011;45330;51.634;5.562;2024-03-23T11:56:10;9.88;;;2.17;;
59512;SDS011;45330;51.634;5.562;2024-03-23T11:58:35;12.13;;;1.83;;
59512;SDS011;45330;51.634;5.562;2024-03-23T12:01:01;4.55;;;1.75;;
59512;SDS011;45330;51.634;5.562;2024-03-23T12:03:28;9.40;;;1.63;;
59512;SDS011;45330;51.634;5.562;2024-03-23T12:05:55;5.78;;;1.80;;
59512;SDS011;45330;51.634;5.562;2024-03-23T12:08:22;8.88;;;1.90;;
59512;SDS011;45330;51.634;5.562;2024-03-23T12:11:08;12.68;;;2.13;;
59512;SDS011;45330;51.634;5.562;2024-03-23T12:13:36;14.02;;;2.47;;
59512;SDS011;45330;51.634;5.562;2024-03-23T12:16:19;8.10;;;1.95;;
59512;SDS011;45330;51.634;5.562;2024-03-23T12:18:46;10.48;;;2.20;;
59512;SDS011;45330;51.634;5.562;2024-03-23T12:21:14;9.07;;;1.60;;
59512;SDS011;45330;51.634;5.562;2024-03-23T12:23:39;13.75;;;2.30;;
59512;SDS011;45330;51.634;5.562;2024-03-23T12:26:05;14.02;;;2.20;;
59512;SDS011;45330;51.634;5.562;2024-03-23T12:28:31;10.27;;;1.98;;
59512;SDS011;45330;51.634;5.562;2024-03-23T12:30:57;9.10;;;1.98;;
59512;SDS011;45330;51.634;5.562;2024-03-23T12:33:22;8.50;;;1.88;;
59512;SDS011;45330;51.634;5.562;2024-03-23T12:35:48;9.75;;;2.00;;
59512;SDS011;45330;51.634;5.562;2024-03-23T12:38:15;8.65;;;2.00;;
59512;SDS011;45330;51.634;5.562;2024-03-23T12:40:40;9.25;;;1.73;;
59512;SDS011;45330;51.634;5.562;2024-03-23T12:43:06;7.40;;;1.75;;
59512;SDS011;45330;51.634;5.562;2024-03-23T12:45:32;11.00;;;2.17;;
59512;SDS011;45330;51.634;5.562;2024-03-23T12:47:58;11.45;;;2.40;;
59512;SDS011;45330;51.634;5.562;2024-03-23T12:50:23;15.45;;;2.38;;
59512;SDS011;45330;51.634;5.562;2024-03-23T12:52:49;10.38;;;2.45;;
59512;SDS011;45330;51.634;5.562;2024-03-23T12:55:14;9.27;;;2.20;;
59512;SDS011;45330;51.634;5.562;2024-03-23T12:57:39;15.35;;;2.35;;
59512;SDS011;45330;51.634;5.562;2024-03-23T13:00:06;11.02;;;2.05;;
59512;SDS011;45330;51.634;5.562;2024-03-23T13:02:31;14.27;;;2.20;;
59512;SDS011;45330;51.634;5.562;2024-03-23T13:04:58;11.00;;;2.28;;
59512;SDS011;45330;51.634;5.562;2024-03-23T13:07:24;8.50;;;2.17;;
59512;SDS011;45330;51.634;5.562;2024-03-23T13:09:50;9.88;;;2.55;;
59512;SDS011;45330;51.634;5.562;2024-03-23T13:12:16;7.47;;;1.90;;
59512;SDS011;45330;51.634;5.562;2024-03-23T13:14:43;14.05;;;2.45;;
59512;SDS011;45330;51.634;5.562;2024-03-23T13:17:09;10.00;;;1.95;;
59512;SDS011;45330;51.634;5.562;2024-03-23T13:19:34;9.77;;;2.20;;
59512;SDS011;45330;51.634;5.562;2024-03-23T13:22:00;7.80;;;1.95;;
59512;SDS011;45330;51.634;5.562;2024-03-23T13:24:28;8.70;;;1.88;;
59512;SDS011;45330;51.634;5.562;2024-03-23T13:26:54;11.30;;;2.10;;
59512;SDS011;45330;51.634;5.562;2024-03-23T13:29:21;11.85;;;2.65;;
59512;SDS011;45330;51.634;5.562;2024-03-23T13:31:49;14.77;;;2.67;;
59512;SDS011;45330;51.634;5.562;2024-03-23T13:34:17;12.65;;;2.20;;
59512;SDS011;45330;51.634;5.562;2024-03-23T13:36:46;12.98;;;2.60;;
59512;SDS011;45330;51.634;5.562;2024-03-23T13:39:12;12.93;;;2.10;;
59512;SDS011;45330;51.634;5.562;2024-03-23T13:41:39;13.00;;;2.40;;
59512;SDS011;45330;51.634;5.562;2024-03-23T13:44:08;11.38;;;2.42;;
59512;SDS011;45330;51.634;5.562;2024-03-23T13:46:35;14.65;;;2.50;;
59512;SDS011;45330;51.634;5.562;2024-03-23T13:49:01;10.15;;;2.13;;
59512;SDS011;45330;51.634;5.562;2024-03-23T13:51:26;7.85;;;1.95;;
59512;SDS011;45330;51.634;5.562;2024-03-23T13:53:55;13.35;;;2.67;;
59512;SDS011;45330;51.634;5.562;2024-03-23T13:56:27;10.93;;;2.10;;
59512;SDS011;45330;51.634;5.562;2024-03-23T13:58:54;10.13;;;2.13;;
59512;SDS011;45330;51.634;5.562;2024-03-23T14:01:23;11.63;;;1.85;;
59512;SDS011;45330;51.634;5.562;2024-03-23T14:03:49;12.27;;;2.25;;
59512;SDS011;45330;51.634;5.562;2024-03-23T14:06:15;12.00;;;2.38;;
59512;SDS011;45330;51.634;5.562;2024-03-23T14:08:40;10.90;;;2.22;;
59512;SDS011;45330;51.634;5.562;2024-03-23T14:11:06;12.25;;;2.03;;
59512;SDS011;45330;51.634;5.562;2024-03-23T14:13:32;8.77;;;2.20;;
59512;SDS011;45330;51.634;5.562;2024-03-23T14:15:58;13.88;;;2.72;;
59512;SDS011;45330;51.634;5.562;2024-03-23T14:18:23;14.80;;;2.78;;
59512;SDS011;45330;51.634;5.562;2024-03-23T14:20:50;14.15;;;2.35;;
59512;SDS011;45330;51.634;5.562;2024-03-23T14:23:16;14.48;;;2.75;;
59512;SDS011;45330;51.634;5.562;2024-03-23T14:25:42;12.60;;;2.67;;
59512;SDS011;45330;51.634;5.562;2024-03-23T14:28:07;14.05;;;3.28;;
59512;SDS011;45330;51.634;5.562;2024-03-23T14:33:04;10.10;;;2.15;;
59512;SDS011;45330;51.634;5.562;2024-03-23T14:35:29;13.05;;;2.17;;
59512;SDS011;45330;51.634;5.562;2024-03-23T14:37:56;12.38;;;2.08;;
59512;SDS011;45330;51.634;5.562;2024-03-23T14:40:21;12.18;;;2.88;;
59512;SDS011;45330;51.634;5.562;2024-03-23T14:42:47;13.05;;;2.72;;
59512;SDS011;45330;51.634;5.562;2024-03-23T14:45:12;16.83;;;2.65;;
59512;SDS011;45330;51.634;5.562;2024-03-23T14:47:37;9.35;;;2.40;;
59512;SDS011;45330;51.634;5.562;2024-03-23T14:50:03;12.95;;;2.50;;
59512;SDS011;45330;51.634;5.562;2024-03-23T14:52:28;14.23;;;3.22;;
59512;SDS011;45330;51.634;5.562;2024-03-23T14:54:54;13.73;;;2.55;;
59512;SDS011;45330;51.634;5.562;2024-03-23T14:57:21;13.63;;;2.60;;
59512;SDS011;45330;51.634;5.562;2024-03-23T14:59:47;9.25;;;2.10;;
59512;SDS011;45330;51.634;5.562;2024-03-23T15:02:12;18.02;;;4.45;;
59512;SDS011;45330;51.634;5.562;2024-03-23T15:04:38;14.43;;;2.78;;
59512;SDS011;45330;51.634;5.562;2024-03-23T15:07:06;15.20;;;2.08;;
59512;SDS011;45330;51.634;5.562;2024-03-23T15:09:32;9.88;;;2.00;;
59512;SDS011;45330;51.634;5.562;2024-03-23T15:11:57;4.53;;;1.45;;
59512;SDS011;45330;51.634;5.562;2024-03-23T15:14:23;7.72;;;1.50;;
59512;SDS011;45330;51.634;5.562;2024-03-23T15:16:49;5.88;;;1.33;;
59512;SDS011;45330;51.634;5.562;2024-03-23T15:19:15;2.05;;;1.23;;
59512;SDS011;45330;51.634;5.562;2024-03-23T15:21:42;5.13;;;1.20;;
59512;SDS011;45330;51.634;5.562;2024-03-23T15:24:08;6.32;;;1.48;;
59512;SDS011;45330;51.634;5.562;2024-03-23T15:26:36;5.70;;;1.70;;
59512;SDS011;45330;51.634;5.562;2024-03-23T15:29:02;7.32;;;1.83;;
59512;SDS011;45330;51.634;5.562;2024-03-23T15:31:27;12.68;;;2.03;;
59512;SDS011;45330;51.634;5.562;2024-03-23T15:33:54;8.43;;;1.65;;
59512;SDS011;45330;51.634;5.562;2024-03-23T15:36:20;6.45;;;1.80;;
59512;SDS011;45330;51.634;5.562;2024-03-23T15:38:45;9.25;;;2.05;;